createdAt,value
2016-06-17T00:01:28.592Z,996.06
2016-06-17T00:04:40.446Z,996.1
2016-06-17T00:07:55.159Z,996.14
2016-06-17T00:11:08.939Z,996.08
2016-06-17T00:14:26.902Z,996.22
2016-06-17T00:17:31.788Z,996.18
2016-06-17T00:20:45.641Z,996.14
2016-06-17T00:23:59.496Z,996.1
2016-06-17T00:27:13.291Z,996.12
2016-06-17T00:30:26.442Z,996.02
2016-06-17T00:33:40.155Z,995.86
2016-06-17T00:36:53.651Z,995.92
2016-06-17T00:40:07.460Z,995.76
2016-06-17T00:43:25.190Z,995.56
2016-06-17T00:46:30.122Z,995.52
2016-06-17T00:49:43.866Z,995.5
2016-06-17T00:52:57.688Z,995.56
2016-06-17T00:56:11.575Z,995.52
2016-06-17T00:59:29.008Z,995.28
2016-06-17T01:02:33.846Z,995.36
2016-06-17T01:05:47.309Z,995.38
2016-06-17T01:09:00.492Z,995.34
2016-06-17T01:12:14.052Z,995.16
2016-06-17T01:15:27.547Z,995.08
2016-06-17T01:18:41.042Z,995.06
2016-06-17T01:21:54.537Z,995.08
2016-06-17T01:25:07.925Z,995.12
2016-06-17T01:28:26.451Z,995.04
2016-06-17T01:31:30.352Z,995.04
2016-06-17T01:34:44.034Z,995.08
2016-06-17T01:37:57.514Z,995.16
2016-06-17T01:41:10.981Z,995.02
2016-06-17T01:44:28.335Z,995.02
2016-06-17T01:47:32.064Z,994.98
2016-06-17T01:50:46.496Z,994.98
2016-06-17T01:53:59.741Z,994.9
2016-06-17T01:57:13.352Z,994.94
2016-06-17T02:00:26.898Z,994.92
2016-06-17T02:03:44.519Z,994.86
2016-06-17T02:06:53.374Z,994.86
2016-06-17T02:10:06.373Z,994.8
2016-06-17T02:13:23.430Z,994.78
2016-06-17T02:16:28.066Z,994.74
2016-06-17T02:19:40.139Z,994.68
2016-06-17T02:22:53.633Z,994.57
2016-06-17T02:26:07.117Z,994.53
2016-06-17T02:29:24.502Z,994.39
2016-06-17T02:32:29.247Z,994.27
2016-06-17T02:35:41.460Z,994.21
2016-06-17T02:38:55.970Z,994.15
2016-06-17T02:42:09.500Z,994.23
2016-06-17T02:45:26.651Z,994.17
2016-06-17T02:48:31.474Z,994.01
2016-06-17T02:51:44.875Z,993.97
2016-06-17T02:54:58.417Z,993.95
2016-06-17T02:58:11.992Z,994.11
2016-06-17T03:01:25.550Z,994.03
2016-06-17T03:04:38.998Z,994.13
2016-06-17T03:07:52.695Z,994.17
2016-06-17T03:11:05.878Z,994.19
2016-06-17T03:14:23.392Z,994.27
2016-06-17T03:17:28.215Z,994.29
2016-06-17T03:20:41.725Z,994.29
2016-06-17T03:23:55.298Z,994.31
2016-06-17T03:27:08.156Z,994.33
2016-06-17T03:30:26.322Z,994.29
2016-06-17T03:33:30.973Z,994.25
2016-06-17T03:36:44.592Z,994.29
2016-06-17T03:39:58.042Z,994.29
2016-06-17T03:43:11.570Z,994.29
2016-06-17T03:46:29.144Z,994.33
2016-06-17T03:49:33.965Z,994.35
2016-06-17T03:52:47.648Z,994.29
2016-06-17T03:56:01.221Z,994.17
2016-06-17T03:59:14.828Z,994.13
2016-06-17T04:02:28.261Z,994.09
2016-06-17T04:05:41.740Z,994.19
2016-06-17T04:08:52.594Z,994.19
2016-06-17T04:12:06.402Z,994.13
2016-06-17T04:15:23.913Z,994.17
2016-06-17T04:18:28.757Z,994.31
2016-06-17T04:21:42.224Z,994.37
2016-06-17T04:24:55.564Z,994.45
2016-06-17T04:28:08.903Z,994.41
2016-06-17T04:31:26.606Z,994.39
2016-06-17T04:34:31.258Z,994.29
2016-06-17T04:37:44.830Z,994.21
2016-06-17T04:40:58.247Z,994.25
2016-06-17T04:44:11.823Z,994.33
2016-06-17T04:47:29.210Z,994.21
2016-06-17T04:50:34.156Z,994.25
2016-06-17T04:53:47.605Z,994.21
2016-06-17T04:57:01.397Z,994.07
2016-06-17T05:00:15.082Z,993.97
2016-06-17T05:03:28.390Z,993.97
2016-06-17T05:06:42.025Z,994.05
2016-06-17T05:09:55.833Z,994.03
2016-06-17T05:13:09.421Z,994.01
2016-06-17T05:16:27.840Z,994.05
2016-06-17T05:19:31.695Z,994.03
2016-06-17T05:22:45.236Z,994.09
2016-06-17T05:25:58.794Z,994.09
2016-06-17T05:29:12.495Z,993.95
2016-06-17T05:32:25.771Z,994.09
2016-06-17T05:35:39.359Z,994.11
2016-06-17T05:38:52.964Z,994.25
2016-06-17T05:42:06.443Z,994.21
2016-06-17T05:45:23.847Z,994.15
2016-06-17T05:48:28.717Z,994.09
2016-06-17T05:51:42.305Z,994.09
2016-06-17T05:54:55.910Z,994.03
2016-06-17T05:58:09.248Z,993.99
2016-06-17T06:01:26.934Z,993.83
2016-06-17T06:04:31.772Z,993.79
2016-06-17T06:07:45.189Z,993.65
2016-06-17T06:10:57.886Z,993.51
2016-06-17T06:14:11.944Z,993.51
2016-06-17T06:17:29.426Z,993.37
2016-06-17T06:20:34.342Z,993.39
2016-06-17T06:23:48.025Z,993.35
2016-06-17T06:27:01.458Z,993.61
2016-06-17T06:30:14.841Z,993.77
2016-06-17T06:33:28.476Z,993.79
2016-06-17T06:36:42.022Z,993.79
2016-06-17T06:39:53.208Z,993.71
2016-06-17T06:43:06.908Z,993.75
2016-06-17T06:46:24.063Z,993.85
2016-06-17T06:49:28.761Z,993.71
2016-06-17T06:52:42.147Z,993.59
2016-06-17T06:55:55.736Z,993.57
2016-06-17T06:59:09.293Z,993.63
2016-06-17T07:02:27.056Z,993.75
2016-06-17T07:05:31.817Z,993.77
2016-06-17T07:08:45.467Z,993.75
2016-06-17T07:11:59.119Z,993.85
2016-06-17T07:15:12.676Z,993.79
2016-06-17T07:18:26.361Z,993.81
2016-06-17T07:21:39.762Z,993.79
2016-06-17T07:24:53.304Z,993.69
2016-06-17T07:28:06.986Z,993.67
2016-06-17T07:31:24.640Z,993.73
2016-06-17T07:34:29.371Z,993.73
2016-06-17T07:37:42.958Z,993.71
2016-06-17T07:40:56.453Z,993.93
2016-06-17T07:44:10.213Z,993.99
2016-06-17T07:47:27.837Z,993.75
2016-06-17T07:50:32.706Z,993.83
2016-06-17T07:53:46.108Z,993.77
2016-06-17T07:56:59.539Z,993.79
2016-06-17T08:06:32.135Z,993.77
2016-06-17T08:09:45.413Z,993.83
2016-06-17T08:12:58.751Z,993.85
2016-06-17T08:16:12.340Z,993.83
2016-06-17T08:19:26.101Z,993.73
2016-06-17T08:22:39.552Z,993.83
2016-06-17T08:25:53.203Z,993.87
2016-06-17T08:29:06.573Z,993.73
2016-06-17T08:32:24.053Z,993.77
2016-06-17T08:35:28.860Z,993.83
2016-06-17T08:38:46.577Z,993.91
2016-06-17T08:41:53.102Z,993.91
2016-06-17T08:45:31.598Z,994.09
2016-06-17T08:48:44.734Z,994.13
2016-06-17T08:51:57.979Z,994.19
2016-06-17T08:55:11.551Z,994.25
2016-06-17T08:58:29.177Z,994.29
2016-06-17T09:01:33.967Z,994.25
2016-06-17T09:04:47.400Z,994.25
2016-06-17T09:07:59.457Z,994.43
2016-06-17T09:17:35.036Z,994.53
2016-06-17T09:26:45.651Z,994.57
2016-06-17T09:29:59.103Z,994.59
2016-06-17T09:33:12.614Z,994.68
2016-06-17T09:36:26.139Z,994.7
2016-06-17T09:39:39.619Z,994.76
2016-06-17T09:42:53.162Z,994.78
2016-06-17T09:46:06.662Z,994.88
2016-06-17T09:49:24.287Z,994.92
2016-06-17T09:52:29.297Z,995
2016-06-17T09:55:42.574Z,994.96
2016-06-17T09:58:56.165Z,995.22
2016-06-17T10:02:09.730Z,995.2
2016-06-17T10:05:25.733Z,995.28
2016-06-17T10:08:30.541Z,995.2
2016-06-17T10:11:43.866Z,995.34
2016-06-17T10:14:57.548Z,995.4
2016-06-17T10:18:09.843Z,995.54
2016-06-17T10:21:28.577Z,995.56
2016-06-17T10:24:33.339Z,995.56
2016-06-17T10:27:46.490Z,995.64
2016-06-17T10:30:59.891Z,995.76
2016-06-17T10:34:13.588Z,995.82
2016-06-17T10:37:27.275Z,995.86
2016-06-17T10:40:40.941Z,995.86
2016-06-17T10:43:54.577Z,995.94
2016-06-17T10:47:08.306Z,995.9
2016-06-17T10:50:24.665Z,995.96
2016-06-17T10:53:29.724Z,996.06
2016-06-17T10:56:42.985Z,996.04
2016-06-17T10:59:56.838Z,996.08
2016-06-17T11:03:10.552Z,996.14
2016-06-17T11:06:28.237Z,996.16
2016-06-17T11:09:33.275Z,996.22
2016-06-17T11:12:46.705Z,996.3
2016-06-17T11:16:00.168Z,996.26
2016-06-17T11:19:13.771Z,996.42
2016-06-17T11:22:29.285Z,996.3
2016-06-17T11:25:34.296Z,996.42
2016-06-17T11:28:47.869Z,996.42
2016-06-17T11:32:01.582Z,996.49
2016-06-17T11:35:15.624Z,996.55
2016-06-17T11:38:29.232Z,996.57
2016-06-17T11:41:43.148Z,996.53
2016-06-17T11:44:56.860Z,996.65
2016-06-17T11:48:10.493Z,996.57
2016-06-17T11:51:28.101Z,996.67
2016-06-17T11:54:33.049Z,996.75
2016-06-17T11:57:46.685Z,996.83
2016-06-17T12:01:00.257Z,996.77
2016-06-17T12:04:13.846Z,996.81
2016-06-17T12:07:26.969Z,996.83
2016-06-17T12:10:40.542Z,996.87
2016-06-17T12:13:54.021Z,996.93
2016-06-17T12:17:07.850Z,996.99
2016-06-17T12:20:25.524Z,996.93
2016-06-17T12:23:30.543Z,996.95
2016-06-17T12:26:44.461Z,996.99
2016-06-17T12:29:57.988Z,997.03
2016-06-17T12:33:11.779Z,997.07
2016-06-17T12:36:29.731Z,997.03
2016-06-17T12:39:34.866Z,997.13
2016-06-17T12:42:48.782Z,997.11
2016-06-17T12:46:02.715Z,997.17
2016-06-17T12:49:20.678Z,997.23
2016-06-17T12:52:29.771Z,997.39
2016-06-17T12:55:35.031Z,997.29
2016-06-17T12:58:49.120Z,997.43
2016-06-17T13:02:02.739Z,997.51
2016-06-17T13:05:20.438Z,997.45
2016-06-17T13:08:29.669Z,997.39
2016-06-17T13:11:35.149Z,997.55
2016-06-17T13:14:47.862Z,997.51
2016-06-17T13:18:02.810Z,997.47
2016-06-17T13:21:20.821Z,997.45
2016-06-17T13:24:30.034Z,997.49
2016-06-17T13:27:35.360Z,997.55
2016-06-17T13:30:49.090Z,997.71
2016-06-17T13:34:02.772Z,997.69
2016-06-17T13:37:20.735Z,997.81
2016-06-17T13:40:29.933Z,997.87
2016-06-17T13:43:35.151Z,997.98
2016-06-17T13:46:48.894Z,997.9
2016-06-17T13:50:03.155Z,998.17
2016-06-17T13:53:21.103Z,998.08
2016-06-17T13:56:26.379Z,998.19
2016-06-17T13:59:40.416Z,998.12
2016-06-17T14:02:54.571Z,998.26
2016-06-17T14:06:08.366Z,998.36
2016-06-17T14:09:26.362Z,998.38
2016-06-17T14:12:31.593Z,998.36
2016-06-17T14:15:44.293Z,998.36
2016-06-17T14:18:59.336Z,998.46
2016-06-17T14:22:13.534Z,998.46
2016-06-17T14:25:26.388Z,998.42
2016-06-17T14:28:40.620Z,998.36
2016-06-17T14:31:54.397Z,998.44
2016-06-17T14:35:08.426Z,998.5
2016-06-17T14:38:26.281Z,998.5
2016-06-17T14:41:31.699Z,998.6
2016-06-17T14:44:45.696Z,998.54
2016-06-17T14:47:59.770Z,998.52
2016-06-17T14:51:13.811Z,998.46
2016-06-17T14:54:27.556Z,998.46
2016-06-17T14:57:41.566Z,998.46
2016-06-17T15:00:55.533Z,998.52
2016-06-17T15:04:09.404Z,998.52
2016-06-17T15:07:27.258Z,998.6
2016-06-17T15:10:32.486Z,998.68
2016-06-17T15:13:46.857Z,998.72
2016-06-17T15:17:00.902Z,998.66
2016-06-17T15:20:15.115Z,998.76
2016-06-17T15:23:29.095Z,998.74
2016-06-17T15:26:43.136Z,998.88
2016-06-17T15:29:57.322Z,998.82
2016-06-17T15:33:11.599Z,998.78
2016-06-17T15:36:29.656Z,998.88
2016-06-17T15:39:35.136Z,998.88
2016-06-17T15:42:48.932Z,998.78
2016-06-17T15:46:03.068Z,998.86
2016-06-17T15:49:21.194Z,998.94
2016-06-17T15:52:26.549Z,999.06
2016-06-17T15:55:40.607Z,999.04
2016-06-17T15:58:54.367Z,999.24
2016-06-17T16:02:08.377Z,999.54
2016-06-17T16:05:26.330Z,999.64
2016-06-17T16:08:31.512Z,999.79
2016-06-17T16:11:45.741Z,999.95
2016-06-17T16:14:59.267Z,1000.01
2016-06-17T16:18:12.996Z,999.91
2016-06-17T16:21:26.976Z,999.97
2016-06-17T16:24:41.004Z,1000.05
2016-06-17T16:27:54.890Z,1000.17
2016-06-17T16:31:08.619Z,1000.19
2016-06-17T16:34:26.738Z,1000.19
2016-06-17T16:37:32.112Z,1000.25
2016-06-17T16:40:46.029Z,1000.23
2016-06-17T16:43:59.898Z,1000.35
2016-06-17T16:47:14.096Z,1000.31
2016-06-17T16:50:27.645Z,1000.37
2016-06-17T16:53:41.841Z,1000.27
2016-06-17T16:56:54.542Z,1000.45
2016-06-17T17:00:08.522Z,1000.47
2016-06-17T17:03:26.362Z,1000.53
2016-06-17T17:06:31.732Z,1000.51
2016-06-17T17:09:45.699Z,1000.43
2016-06-17T17:12:59.787Z,1000.47
2016-06-17T17:16:13.736Z,1000.53
2016-06-17T17:19:27.621Z,1000.53
2016-06-17T17:22:41.166Z,1000.43
2016-06-17T17:25:55.083Z,1000.49
2016-06-17T17:29:09.046Z,1000.61
2016-06-17T17:32:27.087Z,1000.59
2016-06-17T17:35:32.269Z,1000.57
2016-06-17T17:38:46.393Z,1000.53
2016-06-17T17:42:00.356Z,1000.65
2016-06-17T17:45:14.492Z,1000.85
2016-06-17T17:48:28.377Z,1000.87
2016-06-17T17:51:42.156Z,1000.87
2016-06-17T17:54:55.996Z,1000.85
2016-06-17T17:58:09.931Z,1000.85
2016-06-17T18:01:27.947Z,1000.93
2016-06-17T18:04:33.195Z,1000.93
2016-06-17T18:07:47.164Z,1001.03
2016-06-17T18:11:00.817Z,1001.01
2016-06-17T18:14:14.982Z,1001.01
2016-06-17T18:17:29.087Z,1001.19
2016-06-17T18:20:43.132Z,1001.11
2016-06-17T18:23:56.767Z,1001.09
2016-06-17T18:27:10.559Z,1001.13
2016-06-17T18:30:28.647Z,1001.21
2016-06-17T18:33:33.923Z,1001.23
2016-06-17T18:36:47.952Z,1001.33
2016-06-17T18:40:01.994Z,1001.35
2016-06-17T18:43:16.098Z,1001.31
2016-06-17T18:46:29.672Z,1001.41
2016-06-17T18:49:43.497Z,1001.41
2016-06-17T18:52:57.195Z,1001.43
2016-06-17T18:56:11.065Z,1001.47
2016-06-17T18:59:29.122Z,1001.5
2016-06-17T19:02:34.555Z,1001.5
2016-06-17T19:05:48.584Z,1001.54
2016-06-17T19:09:02.343Z,1001.6
2016-06-17T19:12:16.306Z,1001.56
2016-06-17T19:15:30.145Z,1001.56
2016-06-17T19:21:57.950Z,1001.7
2016-06-17T19:25:11.992Z,1001.72
2016-06-17T19:44:29.246Z,1002.14
2016-06-17T19:47:44.195Z,1002.14
2016-06-17T19:50:58.144Z,1002.18
2016-06-17T19:54:12.138Z,1002.14
2016-06-17T19:57:30.055Z,1002.24
2016-06-17T20:00:35.147Z,1002.32
2016-06-17T20:03:48.907Z,1002.4
2016-06-17T20:07:02.683Z,1002.3
2016-06-17T20:10:16.521Z,1002.46
2016-06-17T20:13:30.112Z,1002.48
2016-06-17T20:16:44.233Z,1002.5
2016-06-17T20:19:56.435Z,1002.58
2016-06-17T20:23:10.433Z,1002.58
2016-06-17T20:26:28.085Z,1002.66
2016-06-17T20:29:33.315Z,1002.72
2016-06-17T20:32:47.423Z,1002.82
2016-06-17T20:36:01.137Z,1002.88
2016-06-17T20:39:15.163Z,1002.82
2016-06-17T20:42:29.079Z,1002.89
2016-06-17T20:45:42.969Z,1002.97
2016-06-17T20:48:56.792Z,1002.84
2016-06-17T20:52:10.458Z,1002.99
2016-06-17T20:55:28.155Z,1002.97
2016-06-17T20:58:33.354Z,1002.91
2016-06-17T21:01:47.133Z,1003.01
2016-06-17T21:05:01.018Z,1002.97
2016-06-17T21:08:15.186Z,1003.01
2016-06-17T21:11:28.960Z,1002.97
2016-06-17T21:14:42.599Z,1003.13
2016-06-17T21:17:55.204Z,1003.07
2016-06-17T21:21:10.341Z,1003.19
2016-06-17T21:24:28.057Z,1003.15
2016-06-17T21:27:31.976Z,1003.23
2016-06-17T21:30:46.912Z,1003.25
2016-06-17T21:34:00.611Z,1003.3
2016-06-17T21:37:14.558Z,1003.25
2016-06-17T21:40:28.335Z,1003.35
2016-06-17T21:43:42.286Z,1003.3
2016-06-17T21:46:56.203Z,1003.37
2016-06-17T21:50:09.931Z,1003.39
2016-06-17T21:53:27.552Z,1003.35
2016-06-17T21:56:32.609Z,1003.49
2016-06-17T21:59:46.310Z,1003.47
2016-06-17T22:02:59.899Z,1003.65
2016-06-17T22:06:13.659Z,1003.65
2016-06-17T22:09:27.388Z,1003.67
2016-06-17T22:12:41.257Z,1003.81
2016-06-17T22:15:55.179Z,1003.77
2016-06-17T22:19:08.095Z,1003.81
2016-06-17T22:22:26.839Z,1003.77
2016-06-17T22:25:31.897Z,1003.89
2016-06-17T22:28:45.816Z,1003.87
2016-06-17T22:31:59.358Z,1003.99
2016-06-17T22:35:13.134Z,1004.03
2016-06-17T22:38:30.894Z,1004.05
2016-06-17T22:41:36.030Z,1004.17
2016-06-17T22:44:49.810Z,1004.17
2016-06-17T22:48:03.461Z,1004.29
2016-06-17T22:51:17.377Z,1004.35
2016-06-17T22:54:30.903Z,1004.33
2016-06-17T22:57:44.760Z,1004.37
2016-06-17T23:00:58.740Z,1004.39
2016-06-17T23:04:12.798Z,1004.27
2016-06-17T23:07:30.542Z,1004.47
2016-06-17T23:10:35.552Z,1004.55
2016-06-17T23:13:49.144Z,1004.51
2016-06-17T23:17:02.951Z,1004.63
2016-06-17T23:20:16.572Z,1004.59
2016-06-17T23:23:30.082Z,1004.59
2016-06-17T23:26:43.685Z,1004.65
2016-06-17T23:29:57.434Z,1004.67
2016-06-17T23:33:11.038Z,1004.71
2016-06-17T23:36:28.658Z,1004.73
2016-06-17T23:39:33.610Z,1004.69
2016-06-17T23:42:47.193Z,1004.75
2016-06-17T23:46:00.736Z,1004.88
2016-06-17T23:49:14.295Z,1004.78
2016-06-17T23:52:27.679Z,1004.92
2016-06-17T23:55:41.549Z,1004.88
2016-06-17T23:58:55.360Z,1004.86
